Time;durP1;ratioP1;P1;durP2;ratioP2;P2;SDS_P1;SDS_P2;PMS_P1;PMS_P2;Temp;Humidity;BMP_temperature;BMP_pressure;BME280_temperature;BME280_humidity;BME280_pressure;Samples;Min_cycle;Max_cycle;Signal;HPM_P1;HPM_P2
2023/04/29 00:00:21;;;;;;;33.47;15.68;;;;;;;;;;6278154;22;20016;-79
2023/04/29 00:03:07;;;;;;;25.50;14.75;;;;;;;;;;6287786;22;20019;-79
2023/04/29 00:05:53;;;;;;;20.75;10.77;;;;;;;;;;6287704;22;20019;-79
2023/04/29 00:08:39;;;;;;;22.67;11.63;;;;;;;;;;6264913;22;20016;-80
2023/04/29 00:11:31;;;;;;;24.42;13.30;;;;;;;;;;6287741;22;20020;-79
2023/04/29 00:14:19;;;;;;;24.38;13.38;;;;;;;;;;6287969;22;20023;-79
2023/04/29 00:17:05;;;;;;;19.60;9.38;;;;;;;;;;6287454;22;20019;-79
2023/04/29 00:19:51;;;;;;;59.92;32.03;;;;;;;;;;6265340;22;20019;-79
2023/04/29 00:22:37;;;;;;;25.30;12.43;;;;;;;;;;6282154;22;20011;-80
2023/04/29 00:25:26;;;;;;;25.85;13.75;;;;;;;;;;6287908;22;20015;-79
2023/04/29 00:28:12;;;;;;;29.67;14.57;;;;;;;;;;6287429;22;20011;-80
2023/04/29 00:30:59;;;;;;;27.90;13.52;;;;;;;;;;6264732;22;20019;-78
2023/04/29 00:33:47;;;;;;;20.83;12.02;;;;;;;;;;6287099;22;20433;-78
2023/04/29 00:36:42;;;;;;;19.98;11.68;;;;;;;;;;6288136;22;20019;-78
2023/04/29 00:39:27;;;;;;;17.05;10.55;;;;;;;;;;6287821;22;20020;-79
2023/04/29 00:42:12;;;;;;;18.73;11.65;;;;;;;;;;6264700;22;20437;-79
2023/04/29 00:44:58;;;;;;;20.67;12.43;;;;;;;;;;6287364;22;20019;-79
2023/04/29 00:47:44;;;;;;;20.52;10.85;;;;;;;;;;6264684;22;20441;-78
2023/04/29 00:50:31;;;;;;;19.58;9.73;;;;;;;;;;6264274;22;20020;-79
2023/04/29 00:53:24;;;;;;;18.50;9.75;;;;;;;;;;6265064;22;20345;-78
2023/04/29 00:56:10;;;;;;;16.30;8.82;;;;;;;;;;6264421;22;20068;-78
2023/04/29 00:58:56;;;;;;;14.55;7.57;;;;;;;;;;6287398;22;20020;-78
2023/04/29 01:01:43;;;;;;;13.93;7.32;;;;;;;;;;6287417;22;20020;-78
2023/04/29 01:04:29;;;;;;;64.47;8.88;;;;;;;;;;6264574;22;20019;-79
2023/04/29 01:07:30;;;;;;;18.30;8.63;;;;;;;;;;6264151;22;20049;-79
2023/04/29 01:10:27;;;;;;;11.32;6.80;;;;;;;;;;6264410;22;20020;-79
2023/04/29 01:13:15;;;;;;;20.85;11.00;;;;;;;;;;6264322;22;20433;-79
2023/04/29 01:16:03;;;;;;;11.35;6.60;;;;;;;;;;6264226;22;20020;-79
2023/04/29 01:18:53;;;;;;;12.68;6.00;;;;;;;;;;6286759;22;20015;-79
2023/04/29 01:21:47;;;;;;;11.38;5.97;;;;;;;;;;6263904;22;20019;-79
2023/04/29 01:24:32;;;;;;;11.68;5.82;;;;;;;;;;6265034;22;20019;-79
2023/04/29 01:27:36;;;;;;;14.75;7.55;;;;;;;;;;6264290;22;20016;-79
2023/04/29 01:30:36;;;;;;;11.23;6.75;;;;;;;;;;6286933;22;20016;-79
2023/04/29 01:33:21;;;;;;;30.95;16.27;;;;;;;;;;6263986;22;20019;-79
2023/04/29 01:36:30;;;;;;;43.00;19.20;;;;;;;;;;6264304;22;20024;-78
2023/04/29 01:40:11;;;;;;;20.33;7.85;;;;;;;;;;6263832;22;20438;-79
2023/04/29 01:43:04;;;;;;;15.30;8.40;;;;;;;;;;6192926;23;20017;-79
2023/04/29 01:45:52;;;;;;;21.88;9.10;;;;;;;;;;6194950;23;20021;-79
2023/04/29 01:48:38;;;;;;;14.77;9.68;;;;;;;;;;6288711;22;20016;-79
2023/04/29 01:51:23;;;;;;;14.80;7.28;;;;;;;;;;6265996;22;20350;-79
2023/04/29 01:54:08;;;;;;;16.08;8.93;;;;;;;;;;6265760;22;20349;-79
2023/04/29 01:56:54;;;;;;;23.83;10.02;;;;;;;;;;6266210;22;20019;-79
2023/04/29 01:59:44;;;;;;;15.57;8.40;;;;;;;;;;6265832;22;20019;-79
2023/04/29 02:02:59;;;;;;;15.07;8.13;;;;;;;;;;6288741;22;20020;-79
2023/04/29 02:06:05;;;;;;;18.35;8.90;;;;;;;;;;6289144;22;20020;-79
2023/04/29 02:08:51;;;;;;;16.83;8.57;;;;;;;;;;6265538;22;20016;-79
2023/04/29 02:11:37;;;;;;;15.73;9.13;;;;;;;;;;6266132;22;20023;-80
2023/04/29 02:14:23;;;;;;;19.58;9.95;;;;;;;;;;6288673;22;20338;-80
2023/04/29 02:17:09;;;;;;;14.95;9.07;;;;;;;;;;6265781;22;20011;-79
2023/04/29 02:19:55;;;;;;;16.30;7.53;;;;;;;;;;6266018;22;20015;-79
2023/04/29 02:22:40;;;;;;;14.50;7.75;;;;;;;;;;6256250;23;20042;-79
2023/04/29 02:25:25;;;;;;;12.50;7.13;;;;;;;;;;6258097;23;20016;-79
2023/04/29 02:28:11;;;;;;;17.35;7.75;;;;;;;;;;6256481;23;20020;-79
2023/04/29 02:31:00;;;;;;;13.70;7.28;;;;;;;;;;6256843;23;20350;-79
2023/04/29 02:33:45;;;;;;;18.60;7.70;;;;;;;;;;6257174;23;20020;-80
2023/04/29 02:36:30;;;;;;;13.00;8.13;;;;;;;;;;6256381;23;20035;-79
2023/04/29 02:39:16;;;;;;;14.63;8.43;;;;;;;;;;6256790;23;20020;-80
2023/04/29 02:42:01;;;;;;;18.58;8.15;;;;;;;;;;6256437;23;20434;-79
2023/04/29 02:44:47;;;;;;;15.38;8.23;;;;;;;;;;6257677;23;20020;-79
2023/04/29 02:47:33;;;;;;;19.80;9.18;;;;;;;;;;6257727;23;20020;-79
2023/04/29 02:50:18;;;;;;;15.30;8.80;;;;;;;;;;6256403;23;20016;-79
2023/04/29 02:53:03;;;;;;;17.58;9.02;;;;;;;;;;6256663;23;20016;-79
2023/04/29 02:55:48;;;;;;;19.13;9.18;;;;;;;;;;6255875;23;20020;-79
2023/04/29 02:58:34;;;;;;;15.13;9.20;;;;;;;;;;6257132;23;20020;-80
2023/04/29 03:01:20;;;;;;;16.85;9.05;;;;;;;;;;6256438;23;20020;-77
2023/04/29 03:04:05;;;;;;;17.08;9.15;;;;;;;;;;6256315;23;20016;-80
2023/04/29 03:06:51;;;;;;;21.55;9.32;;;;;;;;;;6256462;23;20020;-80
2023/04/29 03:09:37;;;;;;;18.60;9.75;;;;;;;;;;6256126;23;20019;-80
2023/04/29 03:12:22;;;;;;;16.50;9.82;;;;;;;;;;6257150;23;20342;-80
2023/04/29 03:15:09;;;;;;;17.27;9.70;;;;;;;;;;6256108;23;20020;-79
2023/04/29 03:17:55;;;;;;;13.38;9.18;;;;;;;;;;6257167;23;20016;-80
2023/04/29 03:20:41;;;;;;;23.35;10.40;;;;;;;;;;6257175;23;20012;-78
2023/04/29 03:23:26;;;;;;;16.50;10.15;;;;;;;;;;6273811;22;20433;-78
2023/04/29 03:26:12;;;;;;;22.90;9.25;;;;;;;;;;6243575;22;20019;-79
2023/04/29 03:28:57;;;;;;;22.38;9.77;;;;;;;;;;6265025;22;20012;-78
2023/04/29 03:31:44;;;;;;;23.05;9.77;;;;;;;;;;6265230;22;20019;-79
2023/04/29 03:34:31;;;;;;;19.10;10.45;;;;;;;;;;6265093;22;20349;-79
2023/04/29 03:37:36;;;;;;;22.13;9.98;;;;;;;;;;6273752;22;20016;-78
2023/04/29 03:40:48;;;;;;;18.45;9.45;;;;;;;;;;6288047;22;20020;-79
2023/04/29 03:43:35;;;;;;;24.13;9.57;;;;;;;;;;6265471;22;20016;-79
2023/04/29 03:46:21;;;;;;;18.83;10.30;;;;;;;;;;6287773;22;20020;-79
2023/04/29 03:49:07;;;;;;;23.98;11.38;;;;;;;;;;6264812;22;20015;-79
2023/04/29 03:51:52;;;;;;;27.15;10.15;;;;;;;;;;6265252;22;20016;-78
2023/04/29 03:54:38;;;;;;;22.05;9.73;;;;;;;;;;6264766;22;20016;-78
2023/04/29 03:57:24;;;;;;;21.30;10.15;;;;;;;;;;6265102;22;20015;-78
2023/04/29 04:00:11;;;;;;;20.65;9.60;;;;;;;;;;6264715;22;20440;-79
2023/04/29 04:03:05;;;;;;;15.45;9.45;;;;;;;;;;6265107;22;20019;-78
2023/04/29 04:05:52;;;;;;;19.02;9.30;;;;;;;;;;6243518;22;20342;-79
2023/04/29 04:08:36;;;;;;;16.13;10.02;;;;;;;;;;6287473;22;20011;-79
2023/04/29 04:11:28;;;;;;;18.02;9.57;;;;;;;;;;6264878;22;20019;-79
2023/04/29 04:14:19;;;;;;;25.25;10.25;;;;;;;;;;6264444;22;20019;-79
2023/04/29 04:17:04;;;;;;;20.88;10.60;;;;;;;;;;6264993;22;20019;-77
2023/04/29 04:19:51;;;;;;;16.85;10.40;;;;;;;;;;6264541;22;20349;-78
2023/04/29 04:22:36;;;;;;;18.77;9.98;;;;;;;;;;6278893;22;20037;-78
2023/04/29 04:25:46;;;;;;;20.13;10.63;;;;;;;;;;6287423;22;20020;-78
2023/04/29 04:28:52;;;;;;;23.20;10.82;;;;;;;;;;6242585;22;20453;-80
2023/04/29 04:31:48;;;;;;;24.30;10.20;;;;;;;;;;6264395;22;20019;-77
2023/04/29 04:34:38;;;;;;;22.65;10.68;;;;;;;;;;6264891;22;20019;-78
2023/04/29 04:37:23;;;;;;;20.70;10.30;;;;;;;;;;6265151;22;20345;-77
2023/04/29 04:40:13;;;;;;;19.42;10.27;;;;;;;;;;6264530;22;20016;-77
2023/04/29 04:43:19;;;;;;;17.35;9.32;;;;;;;;;;6268990;22;20019;-77
2023/04/29 04:46:14;;;;;;;14.63;8.55;;;;;;;;;;6264722;22;20015;-77
2023/04/29 04:49:11;;;;;;;19.92;9.30;;;;;;;;;;6264373;22;20421;-77
2023/04/29 04:52:02;;;;;;;14.90;9.10;;;;;;;;;;6264754;22;20019;-77
2023/04/29 04:54:47;;;;;;;18.58;9.95;;;;;;;;;;6264457;22;20023;-78
2023/04/29 04:57:39;;;;;;;22.17;9.60;;;;;;;;;;6263713;22;20445;-78
2023/04/29 05:00:25;;;;;;;15.23;9.60;;;;;;;;;;6264266;22;20015;-77
2023/04/29 05:03:10;;;;;;;21.63;10.27;;;;;;;;;;6264164;22;20019;-78
2023/04/29 05:05:59;;;;;;;15.98;9.57;;;;;;;;;;6264174;22;20015;-78
2023/04/29 05:08:46;;;;;;;18.98;8.90;;;;;;;;;;6264629;22;20008;-78
2023/04/29 05:11:32;;;;;;;16.42;7.63;;;;;;;;;;6243037;22;20019;-78
2023/04/29 05:14:25;;;;;;;12.63;7.18;;;;;;;;;;6244500;22;20341;-78
2023/04/29 05:17:10;;;;;;;13.50;7.43;;;;;;;;;;6264109;22;20433;-79
2023/04/29 05:19:56;;;;;;;16.75;7.75;;;;;;;;;;6265179;22;20342;-78
2023/04/29 05:22:42;;;;;;;14.55;8.25;;;;;;;;;;6266360;22;20024;-78
2023/04/29 05:25:27;;;;;;;17.52;8.02;;;;;;;;;;6266094;22;20136;-78
2023/04/29 05:28:13;;;;;;;19.73;8.45;;;;;;;;;;6266120;22;20016;-78
2023/04/29 05:31:00;;;;;;;15.23;8.70;;;;;;;;;;6266424;22;20015;-78
2023/04/29 05:33:46;;;;;;;14.63;8.02;;;;;;;;;;6266178;22;20346;-78
2023/04/29 05:36:31;;;;;;;21.52;9.32;;;;;;;;;;6266074;22;20023;-78
2023/04/29 05:39:17;;;;;;;12.52;8.23;;;;;;;;;;6265947;22;20546;-78
2023/04/29 05:42:05;;;;;;;17.58;10.05;;;;;;;;;;6265882;22;20019;-78
2023/04/29 05:44:58;;;;;;;13.00;8.10;;;;;;;;;;6265539;22;20349;-78
2023/04/29 05:47:44;;;;;;;22.23;9.38;;;;;;;;;;6287991;22;20019;-78
2023/04/29 05:50:30;;;;;;;16.48;9.15;;;;;;;;;;6265607;22;20015;-78
2023/04/29 05:53:20;;;;;;;15.65;9.23;;;;;;;;;;6266829;22;20019;-78
2023/04/29 05:56:11;;;;;;;23.73;12.50;;;;;;;;;;6267108;22;20015;-79
2023/04/29 05:58:58;;;;;;;20.85;12.48;;;;;;;;;;6265840;22;20019;-79
2023/04/29 06:01:46;;;;;;;20.98;11.95;;;;;;;;;;6288967;22;20016;-77
2023/04/29 06:04:36;;;;;;;19.90;11.10;;;;;;;;;;6266932;22;20015;-80
2023/04/29 06:08:04;;;;;;;17.95;11.32;;;;;;;;;;6263942;22;20016;-80
2023/04/29 06:11:02;;;;;;;21.10;10.50;;;;;;;;;;6266072;22;20437;-78
2023/04/29 06:13:48;;;;;;;19.15;10.02;;;;;;;;;;6288484;22;20353;-78
2023/04/29 06:16:39;;;;;;;20.38;10.35;;;;;;;;;;6266646;22;20019;-78
2023/04/29 06:19:24;;;;;;;19.50;10.50;;;;;;;;;;6266329;22;20019;-78
2023/04/29 06:22:10;;;;;;;23.42;11.30;;;;;;;;;;6265455;22;20020;-78
2023/04/29 06:25:00;;;;;;;25.67;11.90;;;;;;;;;;6265571;22;20019;-78
2023/04/29 06:28:07;;;;;;;16.80;9.85;;;;;;;;;;6265648;22;20015;-78
2023/04/29 06:30:52;;;;;;;18.23;10.68;;;;;;;;;;6265626;22;20015;-77
2023/04/29 06:33:38;;;;;;;15.70;9.93;;;;;;;;;;6265281;22;20445;-78
2023/04/29 06:36:27;;;;;;;19.38;10.40;;;;;;;;;;6266348;22;20453;-78
2023/04/29 06:39:31;;;;;;;17.30;10.02;;;;;;;;;;6288115;22;20015;-78
2023/04/29 06:42:45;;;;;;;20.83;11.10;;;;;;;;;;6253488;22;20012;-78
2023/04/29 06:46:05;;;;;;;24.73;12.10;;;;;;;;;;6288573;22;20338;-78
2023/04/29 06:48:56;;;;;;;25.15;13.52;;;;;;;;;;6265405;22;20353;-78
2023/04/29 06:51:47;;;;;;;27.00;13.55;;;;;;;;;;6266372;22;20020;-79
2023/04/29 06:54:38;;;;;;;21.50;12.40;;;;;;;;;;6266331;22;20346;-79
2023/04/29 06:57:28;;;;;;;142.18;44.03;;;;;;;;;;6266401;22;20015;-78
2023/04/29 07:00:15;;;;;;;26.70;13.30;;;;;;;;;;6288442;22;20016;-78
2023/04/29 07:03:01;;;;;;;23.35;11.93;;;;;;;;;;6287982;22;20015;-79
2023/04/29 07:05:47;;;;;;;22.15;10.85;;;;;;;;;;6265267;22;20019;-78
2023/04/29 07:08:33;;;;;;;18.10;10.45;;;;;;;;;;6287808;22;20329;-78
2023/04/29 07:11:20;;;;;;;18.20;10.98;;;;;;;;;;6287986;22;20015;-79
2023/04/29 07:14:06;;;;;;;19.77;10.23;;;;;;;;;;6287938;22;20345;-78
2023/04/29 07:16:54;;;;;;;25.20;11.52;;;;;;;;;;6287820;22;20445;-79
2023/04/29 07:19:40;;;;;;;18.73;10.73;;;;;;;;;;6264904;22;20016;-79
2023/04/29 07:22:31;;;;;;;16.92;8.35;;;;;;;;;;6266079;22;20019;-79
2023/04/29 07:25:16;;;;;;;25.40;9.10;;;;;;;;;;6265307;22;20338;-79
2023/04/29 07:28:02;;;;;;;12.07;6.60;;;;;;;;;;6265161;22;20020;-79
2023/04/29 07:30:52;;;;;;;10.60;3.88;;;;;;;;;;6266053;22;20385;-79
2023/04/29 07:33:37;;;;;;;8.55;4.60;;;;;;;;;;6264665;22;20024;-79
2023/04/29 07:36:23;;;;;;;7.57;4.43;;;;;;;;;;6265404;22;20016;-80
2023/04/29 07:39:11;;;;;;;11.02;5.65;;;;;;;;;;6265281;22;20015;-79
2023/04/29 07:41:58;;;;;;;15.55;9.10;;;;;;;;;;6264391;22;20019;-79
2023/04/29 07:44:48;;;;;;;14.48;6.75;;;;;;;;;;6265656;22;20015;-80
2023/04/29 07:47:39;;;;;;;26.20;7.22;;;;;;;;;;6266515;22;20337;-79
2023/04/29 07:50:24;;;;;;;12.73;6.63;;;;;;;;;;6264446;22;20012;-79
2023/04/29 07:53:10;;;;;;;14.68;6.97;;;;;;;;;;6287548;22;20015;-80
2023/04/29 07:56:06;;;;;;;21.88;9.05;;;;;;;;;;6287355;22;20019;-79
2023/04/29 07:58:51;;;;;;;13.10;6.35;;;;;;;;;;6243108;22;20341;-79
2023/04/29 08:01:36;;;;;;;15.15;6.10;;;;;;;;;;6264313;22;20314;-79
2023/04/29 08:04:26;;;;;;;15.18;6.28;;;;;;;;;;6265713;22;20020;-80
2023/04/29 08:07:22;;;;;;;13.10;5.93;;;;;;;;;;6264949;22;20016;-79
2023/04/29 08:10:08;;;;;;;15.50;6.55;;;;;;;;;;6264632;22;20016;-79
2023/04/29 08:12:55;;;;;;;12.55;5.15;;;;;;;;;;6264470;22;20441;-79
2023/04/29 08:15:46;;;;;;;13.70;5.47;;;;;;;;;;6265474;22;20338;-78
2023/04/29 08:18:31;;;;;;;11.85;5.28;;;;;;;;;;6264408;22;20019;-79
2023/04/29 08:21:17;;;;;;;10.82;5.15;;;;;;;;;;6264483;22;20346;-79
2023/04/29 08:24:02;;;;;;;12.52;6.38;;;;;;;;;;6287611;22;20020;-79
2023/04/29 08:26:53;;;;;;;11.77;5.15;;;;;;;;;;6287168;22;20019;-80
2023/04/29 08:29:38;;;;;;;10.35;5.05;;;;;;;;;;6287055;22;20015;-79
2023/04/29 08:32:24;;;;;;;8.82;4.18;;;;;;;;;;6287185;22;20019;-78
2023/04/29 08:35:10;;;;;;;7.60;4.15;;;;;;;;;;6287435;22;20016;-78
2023/04/29 08:37:55;;;;;;;8.15;4.90;;;;;;;;;;6267872;22;20342;-77
2023/04/29 08:40:43;;;;;;;28.77;18.30;;;;;;;;;;6289659;22;20020;-77
2023/04/29 08:43:29;;;;;;;11.05;4.88;;;;;;;;;;6288271;22;20012;-77
2023/04/29 08:46:17;;;;;;;26.25;15.80;;;;;;;;;;6288751;22;20433;-78
2023/04/29 08:49:08;;;;;;;18.73;10.60;;;;;;;;;;6291742;22;20023;-78
2023/04/29 08:51:59;;;;;;;12.82;6.55;;;;;;;;;;6295371;22;20334;-76
2023/04/29 08:54:45;;;;;;;8.10;4.38;;;;;;;;;;6293962;22;20016;-77
2023/04/29 08:57:38;;;;;;;8.38;4.50;;;;;;;;;;6291294;22;20016;-77
2023/04/29 09:00:31;;;;;;;17.88;8.38;;;;;;;;;;6294385;22;20019;-77
2023/04/29 09:03:28;;;;;;;6.57;3.80;;;;;;;;;;6292887;22;20015;-77
2023/04/29 09:06:20;;;;;;;9.20;4.97;;;;;;;;;;6274643;22;20020;-77
2023/04/29 09:09:08;;;;;;;7.45;3.65;;;;;;;;;;6297474;22;20016;-78
2023/04/29 09:11:54;;;;;;;7.03;4.30;;;;;;;;;;6295702;22;20019;-77
2023/04/29 09:14:40;;;;;;;17.00;6.80;;;;;;;;;;6273363;22;20012;-77
2023/04/29 09:17:39;;;;;;;9.45;6.15;;;;;;;;;;6292404;22;20015;-77
2023/04/29 09:20:31;;;;;;;6.72;4.07;;;;;;;;;;6296974;22;20020;-78
2023/04/29 09:23:36;;;;;;;10.82;4.70;;;;;;;;;;6281295;22;20020;-81
2023/04/29 09:26:23;;;;;;;9.68;4.70;;;;;;;;;;6290503;22;20016;-78
2023/04/29 09:29:12;;;;;;;55.55;23.83;;;;;;;;;;6282604;22;20020;-78
2023/04/29 09:31:57;;;;;;;14.48;7.25;;;;;;;;;;6288499;22;20016;-77
2023/04/29 09:34:48;;;;;;;14.60;5.72;;;;;;;;;;6287640;22;20024;-77
2023/04/29 09:38:14;;;;;;;7.55;3.85;;;;;;;;;;6287952;22;20020;-77
2023/04/29 09:41:10;;;;;;;8.13;4.00;;;;;;;;;;6288964;22;20015;-76
2023/04/29 09:44:05;;;;;;;20.52;9.13;;;;;;;;;;6287355;22;20425;-77
2023/04/29 09:47:03;;;;;;;10.10;3.75;;;;;;;;;;6287704;22;20019;-76
2023/04/29 09:49:49;;;;;;;8.20;4.90;;;;;;;;;;6287144;22;20020;-76
2023/04/29 09:52:43;;;;;;;9.82;4.38;;;;;;;;;;6264486;22;20337;-77
2023/04/29 09:55:29;;;;;;;8.98;4.68;;;;;;;;;;6290582;22;20019;-81
2023/04/29 09:58:28;;;;;;;71.25;13.27;;;;;;;;;;6290520;22;20015;-77
2023/04/29 10:01:19;;;;;;;26.63;7.50;;;;;;;;;;6293038;22;20433;-77
2023/04/29 10:04:11;;;;;;;8.93;5.18;;;;;;;;;;6271259;22;20436;-76
2023/04/29 10:07:03;;;;;;;10.27;4.18;;;;;;;;;;6289112;22;20330;-72
2023/04/29 10:09:49;;;;;;;8.05;3.40;;;;;;;;;;6265692;22;20020;-74
2023/04/29 10:12:40;;;;;;;9.85;5.03;;;;;;;;;;6265878;22;20015;-74
2023/04/29 10:15:41;;;;;;;7.03;3.72;;;;;;;;;;6290407;22;20019;-76
2023/04/29 10:18:38;;;;;;;26.83;13.23;;;;;;;;;;6266641;22;20349;-73
2023/04/29 10:21:32;;;;;;;6.78;3.90;;;;;;;;;;6290346;22;20019;-76
2023/04/29 10:24:18;;;;;;;6.35;4.05;;;;;;;;;;6289810;22;20019;-75
2023/04/29 10:27:13;;;;;;;9.60;5.45;;;;;;;;;;6293165;22;20019;-75
2023/04/29 10:30:01;;;;;;;19.00;7.43;;;;;;;;;;6288814;22;20064;-73
2023/04/29 10:32:48;;;;;;;7.45;3.80;;;;;;;;;;6288742;22;20015;-74
2023/04/29 10:35:34;;;;;;;6.10;3.10;;;;;;;;;;6290442;22;20015;-74
2023/04/29 10:38:20;;;;;;;9.32;3.65;;;;;;;;;;6291223;22;20020;-75
2023/04/29 10:41:19;;;;;;;13.23;3.55;;;;;;;;;;6292325;22;20341;-75
2023/04/29 10:44:05;;;;;;;6.13;3.50;;;;;;;;;;6289313;22;20019;-75
2023/04/29 10:47:18;;;;;;;17.45;4.57;;;;;;;;;;6291505;22;20345;-76
2023/04/29 10:50:04;;;;;;;11.23;3.60;;;;;;;;;;6300061;22;20012;-77
2023/04/29 10:52:54;;;;;;;11.68;4.93;;;;;;;;;;6298561;22;20015;-76
2023/04/29 10:55:41;;;;;;;6.43;4.18;;;;;;;;;;6289806;22;20437;-76
2023/04/29 10:58:43;;;;;;;10.88;3.90;;;;;;;;;;6289958;22;20016;-76
2023/04/29 11:01:49;;;;;;;6.97;3.80;;;;;;;;;;6288258;22;20020;-76
2023/04/29 11:04:34;;;;;;;6.47;4.00;;;;;;;;;;6265425;22;20019;-76
2023/04/29 11:07:28;;;;;;;6.10;3.60;;;;;;;;;;6288005;22;20019;-76
2023/04/29 11:10:13;;;;;;;8.05;4.10;;;;;;;;;;6287989;22;20011;-78
2023/04/29 11:13:25;;;;;;;8.07;4.28;;;;;;;;;;6287786;22;20437;-76
2023/04/29 11:16:11;;;;;;;8.82;3.90;;;;;;;;;;6287787;22;20016;-76
2023/04/29 11:19:08;;;;;;;10.95;3.92;;;;;;;;;;6278256;22;20039;-75
2023/04/29 11:22:07;;;;;;;8.77;3.80;;;;;;;;;;6285975;22;20024;-76
2023/04/29 11:25:00;;;;;;;5.80;3.38;;;;;;;;;;6288539;22;20019;-76
2023/04/29 11:27:47;;;;;;;8.25;3.67;;;;;;;;;;6287706;22;20011;-76
2023/04/29 11:30:35;;;;;;;6.28;3.45;;;;;;;;;;6265158;22;20441;-76
2023/04/29 11:33:29;;;;;;;7.35;3.70;;;;;;;;;;6287927;22;20016;-77
2023/04/29 11:36:21;;;;;;;6.80;3.40;;;;;;;;;;6287770;22;20020;-77
2023/04/29 11:39:12;;;;;;;8.02;4.82;;;;;;;;;;6261490;22;20020;-77
2023/04/29 11:42:05;;;;;;;12.68;4.47;;;;;;;;;;6289064;22;20016;-78
2023/04/29 11:44:52;;;;;;;6.25;3.85;;;;;;;;;;6288055;22;20020;-78
2023/04/29 11:47:45;;;;;;;10.45;3.47;;;;;;;;;;6288639;22;20020;-80
2023/04/29 11:50:36;;;;;;;5.43;3.15;;;;;;;;;;6288547;22;20016;-79
2023/04/29 11:53:24;;;;;;;7.18;3.50;;;;;;;;;;6288693;22;20023;-79
2023/04/29 11:56:14;;;;;;;13.70;3.67;;;;;;;;;;6291179;22;20349;-78
2023/04/29 11:59:00;;;;;;;6.28;3.10;;;;;;;;;;6288382;22;20020;-78
2023/04/29 12:01:46;;;;;;;8.88;3.22;;;;;;;;;;6288207;22;20016;-77
2023/04/29 12:04:45;;;;;;;6.18;3.20;;;;;;;;;;6288487;22;20019;-75
2023/04/29 12:07:32;;;;;;;8.35;4.35;;;;;;;;;;6287921;22;20015;-75
2023/04/29 12:10:17;;;;;;;6.97;3.17;;;;;;;;;;6288063;22;20015;-75
2023/04/29 12:13:03;;;;;;;6.75;2.90;;;;;;;;;;6288188;22;20019;-75
2023/04/29 12:15:51;;;;;;;7.45;3.30;;;;;;;;;;6288450;22;20334;-75
2023/04/29 12:18:37;;;;;;;6.07;3.28;;;;;;;;;;6287602;22;20020;-75
2023/04/29 12:21:23;;;;;;;7.53;3.05;;;;;;;;;;6287854;22;20012;-75
2023/04/29 12:24:08;;;;;;;6.43;2.67;;;;;;;;;;6287972;22;20445;-76
2023/04/29 12:26:55;;;;;;;10.57;3.40;;;;;;;;;;6287806;22;20337;-76
2023/04/29 12:29:40;;;;;;;13.63;5.70;;;;;;;;;;6287612;22;20019;-76
2023/04/29 12:32:32;;;;;;;8.30;3.60;;;;;;;;;;6287396;22;20012;-76
2023/04/29 12:35:20;;;;;;;12.25;3.08;;;;;;;;;;6265763;22;20024;-76
2023/04/29 12:38:07;;;;;;;9.68;3.90;;;;;;;;;;6288023;22;20019;-76
2023/04/29 12:41:00;;;;;;;10.90;3.63;;;;;;;;;;6287435;22;20019;-75
2023/04/29 12:43:49;;;;;;;12.68;3.40;;;;;;;;;;6287151;22;20342;-75
2023/04/29 12:46:39;;;;;;;7.63;3.30;;;;;;;;;;6287217;22;20441;-75
2023/04/29 12:49:27;;;;;;;10.32;3.70;;;;;;;;;;6287573;22;20020;-75
2023/04/29 12:52:17;;;;;;;7.63;3.10;;;;;;;;;;6287490;22;20011;-76
2023/04/29 12:55:03;;;;;;;12.93;4.90;;;;;;;;;;6287263;22;20015;-75
2023/04/29 12:57:48;;;;;;;8.32;3.40;;;;;;;;;;6287477;22;20023;-75
2023/04/29 13:00:36;;;;;;;7.93;4.20;;;;;;;;;;6287051;22;20019;-74
2023/04/29 13:03:21;;;;;;;19.30;5.25;;;;;;;;;;6287951;22;20019;-76
2023/04/29 13:06:07;;;;;;;11.10;4.28;;;;;;;;;;6287659;22;20020;-76
2023/04/29 13:08:54;;;;;;;12.75;4.95;;;;;;;;;;6288487;22;20019;-76
2023/04/29 13:11:41;;;;;;;8.02;4.03;;;;;;;;;;6288192;22;20015;-75
2023/04/29 13:14:28;;;;;;;9.10;3.80;;;;;;;;;;6288129;22;20016;-75
2023/04/29 13:17:13;;;;;;;9.95;4.10;;;;;;;;;;6287761;22;20019;-76
2023/04/29 13:20:00;;;;;;;8.18;3.50;;;;;;;;;;6287588;22;20015;-75
2023/04/29 13:22:50;;;;;;;7.10;3.40;;;;;;;;;;6281653;22;20015;-76
2023/04/29 13:25:36;;;;;;;10.57;3.25;;;;;;;;;;6287642;22;20337;-75
2023/04/29 13:28:22;;;;;;;7.97;3.45;;;;;;;;;;6287458;22;20019;-76
2023/04/29 13:31:07;;;;;;;10.43;3.17;;;;;;;;;;6287496;22;20436;-75
2023/04/29 13:33:54;;;;;;;18.70;8.10;;;;;;;;;;6287560;22;20020;-76
2023/04/29 13:36:39;;;;;;;13.07;5.78;;;;;;;;;;6287724;22;20020;-75
2023/04/29 13:39:25;;;;;;;10.15;3.83;;;;;;;;;;6288241;22;20015;-75
2023/04/29 13:42:10;;;;;;;9.65;4.30;;;;;;;;;;6290236;22;20020;-76
2023/04/29 13:44:56;;;;;;;17.83;5.53;;;;;;;;;;6290018;22;20016;-75
2023/04/29 13:47:43;;;;;;;13.95;4.25;;;;;;;;;;6289618;22;20020;-76
2023/04/29 13:50:29;;;;;;;8.15;3.75;;;;;;;;;;6289681;22;20016;-75
2023/04/29 13:53:20;;;;;;;8.57;4.10;;;;;;;;;;6290865;22;20317;-76
2023/04/29 13:56:06;;;;;;;8.60;4.13;;;;;;;;;;6289063;22;20019;-76
2023/04/29 13:58:51;;;;;;;10.85;4.53;;;;;;;;;;6289800;22;20016;-75
2023/04/29 14:01:38;;;;;;;9.35;4.30;;;;;;;;;;6290152;22;20020;-77
2023/04/29 14:04:25;;;;;;;9.32;4.38;;;;;;;;;;6288998;22;20019;-74
2023/04/29 14:07:11;;;;;;;7.10;3.47;;;;;;;;;;6289061;22;20015;-75
2023/04/29 14:09:57;;;;;;;10.70;3.90;;;;;;;;;;6288628;22;20023;-75
2023/04/29 14:12:47;;;;;;;12.52;6.22;;;;;;;;;;6288821;22;20361;-75
2023/04/29 14:15:34;;;;;;;13.35;5.18;;;;;;;;;;6288962;22;20020;-75
2023/04/29 14:18:20;;;;;;;11.48;4.63;;;;;;;;;;6288979;22;20023;-75
2023/04/29 14:21:04;;;;;;;10.57;4.43;;;;;;;;;;6288892;22;20020;-75
2023/04/29 14:23:50;;;;;;;10.35;5.43;;;;;;;;;;6278414;22;20016;-75
2023/04/29 14:26:36;;;;;;;9.23;3.80;;;;;;;;;;6289118;22;20016;-75
2023/04/29 14:29:28;;;;;;;11.85;3.88;;;;;;;;;;6288564;22;20020;-75
2023/04/29 14:32:13;;;;;;;8.70;3.83;;;;;;;;;;6265765;22;20015;-75
2023/04/29 14:34:58;;;;;;;8.18;3.47;;;;;;;;;;6290260;22;20336;-76
2023/04/29 14:37:45;;;;;;;8.48;4.10;;;;;;;;;;6289213;22;20019;-76
2023/04/29 14:40:31;;;;;;;7.93;3.83;;;;;;;;;;6289247;22;20015;-76
2023/04/29 14:43:16;;;;;;;9.02;4.53;;;;;;;;;;6290954;22;20019;-79
2023/04/29 14:46:02;;;;;;;8.48;3.70;;;;;;;;;;6294605;22;20015;-79
2023/04/29 14:48:48;;;;;;;14.05;5.25;;;;;;;;;;6293029;22;20019;-78
2023/04/29 14:51:34;;;;;;;9.27;4.50;;;;;;;;;;6288653;22;20011;-79
2023/04/29 14:54:26;;;;;;;9.80;4.22;;;;;;;;;;6289339;22;20012;-78
2023/04/29 14:57:12;;;;;;;20.90;7.65;;;;;;;;;;6288483;22;20068;-79
2023/04/29 14:59:57;;;;;;;14.02;4.65;;;;;;;;;;6265901;22;20024;-77
2023/04/29 15:02:42;;;;;;;22.35;8.18;;;;;;;;;;6288766;22;20019;-77
2023/04/29 15:05:33;;;;;;;16.77;4.53;;;;;;;;;;6289894;22;20020;-77
2023/04/29 15:08:24;;;;;;;17.27;6.18;;;;;;;;;;6288963;22;20019;-78
2023/04/29 15:11:15;;;;;;;11.18;4.65;;;;;;;;;;6289167;22;20015;-78
2023/04/29 15:14:01;;;;;;;14.10;5.95;;;;;;;;;;6290469;22;20429;-78
2023/04/29 15:16:47;;;;;;;9.60;5.20;;;;;;;;;;6288074;22;20016;-77
2023/04/29 15:19:34;;;;;;;8.80;4.28;;;;;;;;;;6289653;22;20019;-78
2023/04/29 15:22:21;;;;;;;10.68;4.13;;;;;;;;;;6256298;23;20437;-78
2023/04/29 15:25:08;;;;;;;10.20;4.35;;;;;;;;;;6258219;23;20016;-75
2023/04/29 15:28:03;;;;;;;16.65;5.57;;;;;;;;;;6256914;23;20016;-76
2023/04/29 15:30:49;;;;;;;18.48;7.10;;;;;;;;;;6256551;23;20430;-76
2023/04/29 15:33:36;;;;;;;10.73;5.38;;;;;;;;;;6254943;23;20020;-78
2023/04/29 15:36:39;;;;;;;15.95;7.05;;;;;;;;;;6258092;23;20016;-77
2023/04/29 15:39:29;;;;;;;20.15;6.95;;;;;;;;;;6254846;23;20350;-78
2023/04/29 15:42:22;;;;;;;10.02;4.32;;;;;;;;;;6256693;23;20020;-77
2023/04/29 15:45:11;;;;;;;12.27;4.30;;;;;;;;;;6234821;23;20019;-78
2023/04/29 15:47:57;;;;;;;12.30;4.78;;;;;;;;;;6256165;23;20024;-78
2023/04/29 15:50:42;;;;;;;16.20;6.07;;;;;;;;;;6257058;23;20012;-77
2023/04/29 15:53:28;;;;;;;15.70;5.22;;;;;;;;;;6256034;23;20446;-77
2023/04/29 15:56:13;;;;;;;18.70;10.00;;;;;;;;;;6256694;23;20020;-75
2023/04/29 15:59:04;;;;;;;12.07;4.22;;;;;;;;;;6256880;23;20437;-77
2023/04/29 16:01:55;;;;;;;13.10;4.32;;;;;;;;;;6256518;23;20016;-75
2023/04/29 16:04:46;;;;;;;11.43;4.95;;;;;;;;;;6254918;23;20366;-77
2023/04/29 16:07:36;;;;;;;9.68;4.40;;;;;;;;;;6256368;23;20020;-77
2023/04/29 16:10:23;;;;;;;11.55;4.72;;;;;;;;;;6256658;23;20016;-78
2023/04/29 16:13:08;;;;;;;25.40;13.52;;;;;;;;;;6256294;23;20016;-77
2023/04/29 16:15:58;;;;;;;16.02;8.88;;;;;;;;;;6256152;23;20023;-74
2023/04/29 16:18:50;;;;;;;17.48;8.70;;;;;;;;;;6255949;23;20023;-75
2023/04/29 16:21:35;;;;;;;26.25;11.00;;;;;;;;;;6253089;22;20016;-75
2023/04/29 16:24:24;;;;;;;32.25;14.13;;;;;;;;;;6287292;22;20015;-77
2023/04/29 16:27:21;;;;;;;29.63;15.15;;;;;;;;;;6246463;22;20441;-77
2023/04/29 16:30:07;;;;;;;32.22;15.30;;;;;;;;;;6285650;22;20019;-78
2023/04/29 16:32:57;;;;;;;33.60;15.20;;;;;;;;;;6287146;22;20019;-77
2023/04/29 16:35:42;;;;;;;34.10;16.20;;;;;;;;;;6287222;22;20015;-77
2023/04/29 16:38:28;;;;;;;39.13;16.30;;;;;;;;;;6264788;22;20016;-78
2023/04/29 16:41:13;;;;;;;36.05;17.17;;;;;;;;;;6287231;22;20430;-77